EDDP 210150Z 29004KT CAVOK 10/07 Q1025 NOSIG EDDP 210120Z 29003KT CAVOK 10/07 Q1025 NOSIG EDDP 210050Z 29003KT CAVOK 10/07 Q1025 NOSIG EDDP 210020Z 29003KT CAVOK 10/07 Q1025 NOSIG EDDP 202350Z 28004KT CAVOK 11/06 Q1025 NOSIG EDDP 202320Z 27004KT CAVOK 11/07 Q1025 NOSIG EDDP 202250Z 26003KT 210V300 CAVOK 10/07 Q1025 NOSIG EDDP 202220Z 26002KT CAVOK 11/07 Q1025 NOSIG EDDP 202150Z VRB01KT CAVOK 10/07 Q1025 NOSIG EDDP 202120Z 15002KT CAVOK 11/07 Q1025 NOSIG EDDP 202050Z 17002KT CAVOK 11/08 Q1024 NOSIG EDDP 202020Z 15001KT CAVOK 11/07 Q1024 NOSIG EDDP 201950Z 13001KT CAVOK 11/07 Q1024 NOSIG EDDP 201920Z 15003KT 090V190 CAVOK 11/07 Q1024 NOSIG EDDP 201850Z 00000KT CAVOK 11/07 Q1024 NOSIG EDDP 201820Z 03001KT CAVOK 11/07 Q1023 NOSIG EDDP 201750Z 03001KT CAVOK 12/07 Q1023 NOSIG EDDP 201720Z 03002KT CAVOK 12/06 Q1023 NOSIG EDDP 201650Z VRB02KT CAVOK 13/06 Q1023 NOSIG EDDP 201620Z VRB01KT 9999 FEW045 13/06 Q1022 NOSIG EDDP 201550Z VRB02KT 9999 FEW045 13/06 Q1022 NOSIG EDDP 201520Z VRB02KT 9999 FEW045 13/05 Q1022 NOSIG EDDP 201450Z VRB02KT 9999 FEW045 14/04 Q1022 NOSIG EDDP 201420Z 07004KT 040V100 9999 FEW045 14/04 Q1022 NOSIG EDDP 201350Z 01004KT 290V070 9999 FEW040 14/05 Q1022 NOSIG EDDP 201320Z 06003KT 310V120 9999 FEW040 14/04 Q1021 NOSIG EDDP 201250Z VRB02KT 9999 SCT040 14/04 Q1021 NOSIG EDDP 201220Z 08003KT 040V120 9999 SCT040 BKN048 13/04 Q1021 NOSIG EDDP 201150Z 05004KT 350V090 9999 SCT040 BKN048 13/05 Q1021 NOSIG EDDP 201120Z VRB02KT 9999 SCT040 BKN048 13/04 Q1021 NOSIG EDDP 201050Z 09005KT 030V160 9999 SCT040 13/04 Q1021 NOSIG EDDP 201020Z 08007KT 050V120 9999 SCT033 13/05 Q1021 NOSIG EDDP 200950Z 05007KT 030V100 9999 FEW025 13/06 Q1021 NOSIG EDDP 200920Z 05007KT 020V090 9999 FEW020 13/07 Q1021 NOSIG EDDP 200850Z 04005KT 360V080 9999 FEW016 12/08 Q1021 NOSIG EDDP 200820Z 04005KT 360V070 9999 FEW016 BKN049 12/08 Q1021 NOSIG EDDP 200750Z 03007KT 360V060 9999 FEW015 BKN049 12/08 Q1021 NOSIG EDDP 200720Z 03007KT 9999 FEW015 BKN049 11/07 Q1020 NOSIG EDDP 200650Z 03005KT 360V060 9999 FEW013 BKN048 11/08 Q1020 NOSIG EDDP 200620Z 03006KT 9999 FEW012 BKN048 11/08 Q1020 NOSIG EDDP 200550Z 02005KT 9999 FEW010 BKN048 11/08 Q1020 NOSIG EDDP 200520Z 03005KT 9999 FEW009 BKN048 10/08 Q1020 NOSIG EDDP 200450Z 04006KT 9999 OVC046 11/08 Q1019 NOSIG EDDP 200420Z 04006KT 9999 OVC042 11/08 Q1019 NOSIG EDDP 200350Z 03006KT 9999 OVC042 11/08 Q1019 NOSIG EDDP 200320Z 03005KT 9999 OVC043 11/08 Q1019 NOSIG EDDP 200250Z 04006KT 9999 OVC045 11/08 Q1019 NOSIG EDDP 200220Z 05005KT 9999 OVC047 11/08 Q1018 NOSIG EDDP 200150Z 05005KT 9999 OVC047 11/08 Q1018 NOSIG EDDP 200120Z 05005KT 9999 OVC045 11/08 Q1018 NOSIG EDDP 200050Z 04006KT 9999 OVC044 11/08 Q1018 NOSIG EDDP 200020Z 04005KT 9999 BKN042 11/08 Q1018 NOSIG EDDP 192350Z 03004KT 9999 BKN045 11/08 Q1018 NOSIG EDDP 192320Z 03005KT 9999 BKN047 11/09 Q1018 NOSIG EDDP 192250Z 04004KT 9999 BKN047 11/09 Q1018 NOSIG EDDP 192220Z 02004KT 9999 BKN048 12/08 Q1018 NOSIG EDDP 192150Z 02004KT 9999 BKN048 11/09 Q1018 NOSIG EDDP 192120Z 02003KT 9999 BKN047 11/09 Q1018 NOSIG EDDP 192050Z 04002KT 9999 BKN046 11/08 Q1018 NOSIG EDDP 192020Z 02002KT 9999 BKN044 12/08 Q1018 NOSIG EDDP 191950Z VRB02KT 9999 BKN045 12/08 Q1018 NOSIG EDDP 191920Z 04003KT 9999 BKN045 12/08 Q1018 NOSIG EDDP 191850Z 04003KT 9999 BKN045 12/08 Q1018 NOSIG EDDP 191820Z 05003KT 9999 BKN046 12/08 Q1018 NOSIG EDDP 191750Z 04003KT 9999 BKN044 12/07 Q1018 NOSIG EDDP 191720Z 04004KT 9999 BKN043 13/07 Q1017 NOSIG EDDP 191650Z 07005KT 9999 R08R/0450V1400D BKN046 13/07 Q1017 NOSIG EDDP 191620Z 06004KT 9999 BKN043 13/06 Q1017 NOSIG EDDP 191550Z 07005KT 040V100 9999 BKN043 13/06 Q1017 NOSIG EDDP 191520Z 06008KT 030V090 9999 SCT042 14/05 Q1017 NOSIG EDDP 191450Z 08005KT 050V110 9999 BKN040 13/06 Q1017 NOSIG EDDP 191420Z 09006KT 060V130 9999 BKN040 13/06 Q1017 NOSIG

METAR Messwerte

Zurück zur Übersicht

Ort
m ü. NN
Zeit Temperatur Taupunkt Rel.
Luftfeuchte
Luftdruck:
Altimeter
NN
Station
Wind in Beaufort
(Knoten)
Sichtweite
(Meter)
Wolken
(Meter über Grund)
Wettererscheinung
Leipzig-Schkeuditz
149
Di 21.09. 03:5010782 %1025
1025
1007
WNW 2 (4)>= 10000Nicht signifikant 
Leipzig-Schkeuditz
149
Di 21.09. 03:2010782 %1025
1025
1007
WNW 2 (3)>= 10000Nicht signifikant 
Leipzig-Schkeuditz
149
Di 21.09. 02:5010782 %1025
1025
1007
WNW 2 (3)>= 10000Nicht signifikant 
Leipzig-Schkeuditz
149
Di 21.09. 02:2010782 %1025
1025
1007
WNW 2 (3)>= 10000Nicht signifikant 
Leipzig-Schkeuditz
149
Di 21.09. 01:5011671 %1025
1025
1007
W 2 (4)>= 10000Nicht signifikant 
Leipzig-Schkeuditz
149
Di 21.09. 01:2011776 %1025
1025
1007
W 2 (4)>= 10000Nicht signifikant 
Leipzig-Schkeuditz
149
Di 21.09. 00:5010782 %1025
1025
1007
W 2 (3)
SSW - WNW
>= 10000Nicht signifikant 
Leipzig-Schkeuditz
149
Di 21.09. 00:2011776 %1025
1025
1007
W 1 (2)>= 10000Nicht signifikant 
Leipzig-Schkeuditz
149
Mo 20.09. 23:5010782 %1025
1025
1007
Uml 1 (1)>= 10000Nicht signifikant 
Leipzig-Schkeuditz
149
Mo 20.09. 23:2011776 %1025
1025
1007
SSO 1 (2)>= 10000Nicht signifikant 
Leipzig-Schkeuditz
149
Mo 20.09. 22:5011882 %1024
1024
1006
S 1 (2)>= 10000Nicht signifikant 
Leipzig-Schkeuditz
149
Mo 20.09. 22:2011776 %1024
1024
1006
SSO 1 (1)>= 10000Nicht signifikant 
Leipzig-Schkeuditz
149
Mo 20.09. 21:5011776 %1024
1024
1006
SO 1 (1)>= 10000Nicht signifikant 
Leipzig-Schkeuditz
149
Mo 20.09. 21:2011776 %1024
1024
1006
SSO 2 (3)
O - S
>= 10000Nicht signifikant 
Leipzig-Schkeuditz
149
Mo 20.09. 20:5011776 %1024
1024
1006
Windstill>= 10000Nicht signifikant 
Leipzig-Schkeuditz
149
Mo 20.09. 20:2011776 %1023
1023
1005
NNO 1 (1)>= 10000Nicht signifikant 
Leipzig-Schkeuditz
149
Mo 20.09. 19:5012771 %1023
1023
1005
NNO 1 (1)>= 10000Nicht signifikant 
Leipzig-Schkeuditz
149
Mo 20.09. 19:2012667 %1023
1023
1005
NNO 1 (2)>= 10000Nicht signifikant 
Leipzig-Schkeuditz
149
Mo 20.09. 18:5013662 %1023
1023
1005
Uml 1 (2)>= 10000Nicht signifikant 
Leipzig-Schkeuditz
149
Mo 20.09. 18:2013662 %1022
1022
1004
Uml 1 (1)>= 10000Leicht bewölkt (1400) 
Leipzig-Schkeuditz
149
Mo 20.09. 17:5013662 %1022
1022
1004
Uml 1 (2)>= 10000Leicht bewölkt (1400) 
Leipzig-Schkeuditz
149
Mo 20.09. 17:2013558 %1022
1022
1004
Uml 1 (2)>= 10000Leicht bewölkt (1400) 
Leipzig-Schkeuditz
149
Mo 20.09. 16:5014451 %1022
1022
1004
Uml 1 (2)>= 10000Leicht bewölkt (1400) 
Leipzig-Schkeuditz
149
Mo 20.09. 16:2014451 %1022
1022
1004
ONO 2 (4)
NO - O
>= 10000Leicht bewölkt (1400) 
Leipzig-Schkeuditz
149
Mo 20.09. 15:5014555 %1022
1022
1004
N 2 (4)
WNW - ONO
>= 10000Leicht bewölkt (1200) 
Leipzig-Schkeuditz
149
Mo 20.09. 15:2014451 %1021
1021
1003
ONO 2 (3)
NW - OSO
>= 10000Leicht bewölkt (1200) 
Leipzig-Schkeuditz
149
Mo 20.09. 14:5014451 %1021
1021
1003
Uml 1 (2)>= 10000Wolkig (1200) 
Leipzig-Schkeuditz
149
Mo 20.09. 14:2013454 %1021
1021
1003
O 2 (3)
NO - OSO
>= 10000Stark bewölkt (1500)
Wolkig (1200)
 
Leipzig-Schkeuditz
149
Mo 20.09. 13:5013558 %1021
1021
1003
NO 2 (4)
N - O
>= 10000Stark bewölkt (1500)
Wolkig (1200)
 
Leipzig-Schkeuditz
149
Mo 20.09. 13:2013454 %1021
1021
1003
Uml 1 (2)>= 10000Stark bewölkt (1500)
Wolkig (1200)
 
Leipzig-Schkeuditz
149
Mo 20.09. 12:5013454 %1021
1021
1003
O 2 (5)
NNO - SSO
>= 10000Wolkig (1200) 
Leipzig-Schkeuditz
149
Mo 20.09. 12:2013558 %1021
1021
1003
O 3 (7)
NO - OSO
>= 10000Wolkig (1000) 
Leipzig-Schkeuditz
149
Mo 20.09. 11:5013662 %1021
1021
1003
NO 3 (7)
NNO - O
>= 10000Leicht bewölkt (760) 
Leipzig-Schkeuditz
149
Mo 20.09. 11:2013767 %1021
1021
1003
NO 3 (7)
NNO - O
>= 10000Leicht bewölkt (610) 
Leipzig-Schkeuditz
149
Mo 20.09. 10:5012876 %1021
1021
1003
NO 2 (5)
N - O
>= 10000Leicht bewölkt (490) 
Leipzig-Schkeuditz
149
Mo 20.09. 10:2012876 %1021
1021
1003
NO 2 (5)
N - ONO
>= 10000Stark bewölkt (1500)
Leicht bewölkt (490)
 
Leipzig-Schkeuditz
149
Mo 20.09. 09:5012876 %1021
1021
1003
NNO 3 (7)
N - ONO
>= 10000Stark bewölkt (1500)
Leicht bewölkt (460)
 
Leipzig-Schkeuditz
149
Mo 20.09. 09:2011776 %1020
1020
1002
NNO 3 (7)>= 10000Stark bewölkt (1500)
Leicht bewölkt (460)
 
Leipzig-Schkeuditz
149
Mo 20.09. 08:5011882 %1020
1020
1002
NNO 2 (5)
N - ONO
>= 10000Stark bewölkt (1500)
Leicht bewölkt (400)
 
Leipzig-Schkeuditz
149
Mo 20.09. 08:2011882 %1020
1020
1002
NNO 2 (6)>= 10000Stark bewölkt (1500)
Leicht bewölkt (370)
 
Leipzig-Schkeuditz
149
Mo 20.09. 07:5011882 %1020
1020
1002
NNO 2 (5)>= 10000Stark bewölkt (1500)
Leicht bewölkt (300)
 
Leipzig-Schkeuditz
149
Mo 20.09. 07:2010887 %1020
1020
1002
NNO 2 (5)>= 10000Stark bewölkt (1500)
Leicht bewölkt (270)
 
Leipzig-Schkeuditz
149
Mo 20.09. 06:5011882 %1019
1019
1001
NO 2 (6)>= 10000Bedeckt (1400) 
Leipzig-Schkeuditz
149
Mo 20.09. 06:2011882 %1019
1019
1001
NO 2 (6)>= 10000Bedeckt (1300) 
Leipzig-Schkeuditz
149
Mo 20.09. 05:5011882 %1019
1019
1001
NNO 2 (6)>= 10000Bedeckt (1300) 
Leipzig-Schkeuditz
149
Mo 20.09. 05:2011882 %1019
1019
1001
NNO 2 (5)>= 10000Bedeckt (1300) 
Leipzig-Schkeuditz
149
Mo 20.09. 04:5011882 %1019
1019
1001
NO 2 (6)>= 10000Bedeckt (1400) 
Leipzig-Schkeuditz
149
Mo 20.09. 04:2011882 %1018
1018
1000
NO 2 (5)>= 10000Bedeckt (1400) 
Leipzig-Schkeuditz
149
Mo 20.09. 03:5011882 %1018
1018
1000
NO 2 (5)>= 10000Bedeckt (1400) 
Leipzig-Schkeuditz
149
Mo 20.09. 03:2011882 %1018
1018
1000
NO 2 (5)>= 10000Bedeckt (1400) 
Leipzig-Schkeuditz
149
Mo 20.09. 02:5011882 %1018
1018
1000
NO 2 (6)>= 10000Bedeckt (1300) 
Leipzig-Schkeuditz
149
Mo 20.09. 02:2011882 %1018
1018
1000
NO 2 (5)>= 10000Stark bewölkt (1300) 
Leipzig-Schkeuditz
149
Mo 20.09. 01:5011882 %1018
1018
1000
NNO 2 (4)>= 10000Stark bewölkt (1400) 
Leipzig-Schkeuditz
149
Mo 20.09. 01:2011987 %1018
1018
1000
NNO 2 (5)>= 10000Stark bewölkt (1400) 
Leipzig-Schkeuditz
149
Mo 20.09. 00:5011987 %1018
1018
1000
NO 2 (4)>= 10000Stark bewölkt (1400) 
Leipzig-Schkeuditz
149
Mo 20.09. 00:2012876 %1018
1018
1000
NNO 2 (4)>= 10000Stark bewölkt (1500) 
Leipzig-Schkeuditz
149
So 19.09. 23:5011987 %1018
1018
1000
NNO 2 (4)>= 10000Stark bewölkt (1500) 
Leipzig-Schkeuditz
149
So 19.09. 23:2011987 %1018
1018
1000
NNO 2 (3)>= 10000Stark bewölkt (1400) 
Leipzig-Schkeuditz
149
So 19.09. 22:5011882 %1018
1018
1000
NO 1 (2)>= 10000Stark bewölkt (1400) 
Leipzig-Schkeuditz
149
So 19.09. 22:2012876 %1018
1018
1000
NNO 1 (2)>= 10000Stark bewölkt (1300) 
Leipzig-Schkeuditz
149
So 19.09. 21:5012876 %1018
1018
1000
Uml 1 (2)>= 10000Stark bewölkt (1400) 
Leipzig-Schkeuditz
149
So 19.09. 21:2012876 %1018
1018
1000
NO 2 (3)>= 10000Stark bewölkt (1400) 
Leipzig-Schkeuditz
149
So 19.09. 20:5012876 %1018
1018
1000
NO 2 (3)>= 10000Stark bewölkt (1400) 
Leipzig-Schkeuditz
149
So 19.09. 20:2012876 %1018
1018
1000
NO 2 (3)>= 10000Stark bewölkt (1400) 
Leipzig-Schkeuditz
149
So 19.09. 19:5012771 %1018
1018
1000
NO 2 (3)>= 10000Stark bewölkt (1300) 
Leipzig-Schkeuditz
149
So 19.09. 19:2013767 %1017
1017
999
NO 2 (4)>= 10000Stark bewölkt (1300) 
Leipzig-Schkeuditz
149
So 19.09. 18:5013767 %1017
1017
999
ONO 2 (5)>= 10000Stark bewölkt (1400) 
Leipzig-Schkeuditz
149
So 19.09. 18:2013662 %1017
1017
999
ONO 2 (4)>= 10000Stark bewölkt (1300) 
Leipzig-Schkeuditz
149
So 19.09. 17:5013662 %1017
1017
999
ONO 2 (5)
NO - O
>= 10000Stark bewölkt (1300) 
Leipzig-Schkeuditz
149
So 19.09. 17:2014555 %1017
1017
999
ONO 3 (8)
NNO - O
>= 10000Wolkig (1300) 
Leipzig-Schkeuditz
149
So 19.09. 16:5013662 %1017
1017
999
O 2 (5)
NO - OSO
>= 10000Stark bewölkt (1200) 
Leipzig-Schkeuditz
149
So 19.09. 16:2013662 %1017
1017
999
O 2 (6)
ONO - SO
>= 10000Stark bewölkt (1200) 

Altimeter: Einstellung am Altimeter (Höhenmesser), die Höhe 0 muss auf diesen Luftdruckwert zeigen, damit das Gerät die Stationshöhe richtig anzeigt.

NN: Luftdruck reduziert auf "Normal Null", auf Meereshöhe, dieser von der Temperatur abhängige Wert wird bisweilen unkorrekt einfach als "Luftdruck" bezeichnet. Eigentlich nur eine fiktive Größe, die es erlaubt, Stationen auf unterschiedlichen Höhen miteinander zu vergleichen.

Station: Realer Luftdruck an der Station.